sensor_id;sensor_type;location;lat;lon;timestamp;temperature;humidity
6843;DHT22;3460;52.028;8.916;2023-05-10T00:01:00;15.50;99.90
6843;DHT22;3460;52.028;8.916;2023-05-10T00:03:28;15.50;99.90
6843;DHT22;3460;52.028;8.916;2023-05-10T00:05:56;15.50;99.90
6843;DHT22;3460;52.028;8.916;2023-05-10T00:08:23;15.50;99.90
6843;DHT22;3460;52.028;8.916;2023-05-10T00:10:49;15.50;99.90
6843;DHT22;3460;52.028;8.916;2023-05-10T00:13:16;15.50;99.90
6843;DHT22;3460;52.028;8.916;2023-05-10T00:15:43;15.40;99.90
6843;DHT22;3460;52.028;8.916;2023-05-10T00:18:10;15.40;99.90
6843;DHT22;3460;52.028;8.916;2023-05-10T00:20:37;15.40;99.90
6843;DHT22;3460;52.028;8.916;2023-05-10T00:23:05;15.40;99.90
6843;DHT22;3460;52.028;8.916;2023-05-10T00:25:31;15.40;99.90
6843;DHT22;3460;52.028;8.916;2023-05-10T00:27:58;15.40;99.90
6843;DHT22;3460;52.028;8.916;2023-05-10T00:30:26;15.40;99.90
6843;DHT22;3460;52.028;8.916;2023-05-10T00:32:53;15.40;99.90
6843;DHT22;3460;52.028;8.916;2023-05-10T00:35:20;15.40;99.90
6843;DHT22;3460;52.028;8.916;2023-05-10T00:37:47;15.30;99.90
6843;DHT22;3460;52.028;8.916;2023-05-10T00:40:15;15.30;99.90
6843;DHT22;3460;52.028;8.916;2023-05-10T00:42:42;15.30;99.90
6843;DHT22;3460;52.028;8.916;2023-05-10T00:45:09;15.30;99.90
6843;DHT22;3460;52.028;8.916;2023-05-10T00:47:36;15.30;99.90
6843;DHT22;3460;52.028;8.916;2023-05-10T00:50:05;15.30;99.90
6843;DHT22;3460;52.028;8.916;2023-05-10T00:52:32;15.20;99.90
6843;DHT22;3460;52.028;8.916;2023-05-10T00:55:00;15.20;99.90
6843;DHT22;3460;52.028;8.916;2023-05-10T00:57:28;15.20;99.90
6843;DHT22;3460;52.028;8.916;2023-05-10T00:59:56;15.20;99.90
6843;DHT22;3460;52.028;8.916;2023-05-10T01:02:24;15.20;99.90
6843;DHT22;3460;52.028;8.916;2023-05-10T01:04:51;15.20;99.90
6843;DHT22;3460;52.028;8.916;2023-05-10T01:07:18;15.20;99.90
6843;DHT22;3460;52.028;8.916;2023-05-10T01:09:45;15.10;99.90
6843;DHT22;3460;52.028;8.916;2023-05-10T01:12:11;15.10;99.90
6843;DHT22;3460;52.028;8.916;2023-05-10T01:14:40;15.10;99.90
6843;DHT22;3460;52.028;8.916;2023-05-10T01:17:07;15.10;99.90
6843;DHT22;3460;52.028;8.916;2023-05-10T01:19:35;15.10;99.90
6843;DHT22;3460;52.028;8.916;2023-05-10T01:22:07;15.10;99.90
6843;DHT22;3460;52.028;8.916;2023-05-10T01:27:59;15.10;99.90
6843;DHT22;3460;52.028;8.916;2023-05-10T01:31:02;15.10;99.90
6843;DHT22;3460;52.028;8.916;2023-05-10T01:33:35;15.00;99.90
6843;DHT22;3460;52.028;8.916;2023-05-10T01:36:11;15.10;99.90
6843;DHT22;3460;52.028;8.916;2023-05-10T01:38:43;15.10;99.90
6843;DHT22;3460;52.028;8.916;2023-05-10T01:41:16;15.10;99.90
6843;DHT22;3460;52.028;8.916;2023-05-10T01:43:51;15.20;99.90
6843;DHT22;3460;52.028;8.916;2023-05-10T01:46:27;15.20;99.90
6843;DHT22;3460;52.028;8.916;2023-05-10T01:48:58;15.10;99.90
6843;DHT22;3460;52.028;8.916;2023-05-10T01:51:31;15.10;99.90
6843;DHT22;3460;52.028;8.916;2023-05-10T01:54:03;15.20;99.90
6843;DHT22;3460;52.028;8.916;2023-05-10T01:56:33;15.00;99.90
6843;DHT22;3460;52.028;8.916;2023-05-10T01:59:05;14.90;99.90
6843;DHT22;3460;52.028;8.916;2023-05-10T02:01:33;14.90;99.90
6843;DHT22;3460;52.028;8.916;2023-05-10T02:04:04;14.90;99.90
6843;DHT22;3460;52.028;8.916;2023-05-10T02:06:32;14.90;99.90
6843;DHT22;3460;52.028;8.916;2023-05-10T02:11:28;14.80;99.90
6843;DHT22;3460;52.028;8.916;2023-05-10T02:13:57;14.70;99.90
6843;DHT22;3460;52.028;8.916;2023-05-10T02:16:26;14.70;99.90
6843;DHT22;3460;52.028;8.916;2023-05-10T02:18:57;14.70;99.90
6843;DHT22;3460;52.028;8.916;2023-05-10T02:21:28;14.70;99.90
6843;DHT22;3460;52.028;8.916;2023-05-10T02:23:57;14.70;99.90
6843;DHT22;3460;52.028;8.916;2023-05-10T02:26:25;14.70;99.90
6843;DHT22;3460;52.028;8.916;2023-05-10T02:28:53;14.70;99.90
6843;DHT22;3460;52.028;8.916;2023-05-10T02:31:22;14.70;99.90
6843;DHT22;3460;52.028;8.916;2023-05-10T02:33:49;14.70;99.90
6843;DHT22;3460;52.028;8.916;2023-05-10T02:36:16;14.70;99.90
6843;DHT22;3460;52.028;8.916;2023-05-10T02:38:46;14.80;99.90
6843;DHT22;3460;52.028;8.916;2023-05-10T02:41:13;14.80;99.90
6843;DHT22;3460;52.028;8.916;2023-05-10T02:43:41;14.80;99.90
6843;DHT22;3460;52.028;8.916;2023-05-10T02:46:08;14.80;99.90
6843;DHT22;3460;52.028;8.916;2023-05-10T02:48:35;14.70;99.90
6843;DHT22;3460;52.028;8.916;2023-05-10T02:51:05;14.70;99.90
6843;DHT22;3460;52.028;8.916;2023-05-10T02:53:36;14.70;99.90
6843;DHT22;3460;52.028;8.916;2023-05-10T02:56:11;14.70;99.90
6843;DHT22;3460;52.028;8.916;2023-05-10T02:58:39;14.80;99.90
6843;DHT22;3460;52.028;8.916;2023-05-10T03:01:06;14.70;99.90
6843;DHT22;3460;52.028;8.916;2023-05-10T03:03:34;14.60;99.90
6843;DHT22;3460;52.028;8.916;2023-05-10T03:06:01;14.50;99.90
6843;DHT22;3460;52.028;8.916;2023-05-10T03:08:28;14.50;99.90
6843;DHT22;3460;52.028;8.916;2023-05-10T03:11:03;14.30;99.90
6843;DHT22;3460;52.028;8.916;2023-05-10T03:13:42;14.20;99.90
6843;DHT22;3460;52.028;8.916;2023-05-10T03:16:15;14.10;99.90
6843;DHT22;3460;52.028;8.916;2023-05-10T03:18:44;14.00;99.90
6843;DHT22;3460;52.028;8.916;2023-05-10T03:21:16;13.80;99.90
6843;DHT22;3460;52.028;8.916;2023-05-10T03:23:47;13.70;99.90
6843;DHT22;3460;52.028;8.916;2023-05-10T03:26:17;13.60;99.90
6843;DHT22;3460;52.028;8.916;2023-05-10T03:28:48;13.60;99.90
6843;DHT22;3460;52.028;8.916;2023-05-10T03:31:17;13.60;99.90
6843;DHT22;3460;52.028;8.916;2023-05-10T03:33:48;13.60;99.90
6843;DHT22;3460;52.028;8.916;2023-05-10T03:36:15;13.50;99.90
6843;DHT22;3460;52.028;8.916;2023-05-10T03:38:41;13.50;99.90
6843;DHT22;3460;52.028;8.916;2023-05-10T03:41:08;13.50;99.90
6843;DHT22;3460;52.028;8.916;2023-05-10T03:43:35;13.50;99.90
6843;DHT22;3460;52.028;8.916;2023-05-10T03:46:04;13.50;99.90
6843;DHT22;3460;52.028;8.916;2023-05-10T03:48:33;13.50;99.90
6843;DHT22;3460;52.028;8.916;2023-05-10T03:51:00;13.50;99.90
6843;DHT22;3460;52.028;8.916;2023-05-10T03:53:27;13.50;99.90
6843;DHT22;3460;52.028;8.916;2023-05-10T03:55:53;13.50;99.90
6843;DHT22;3460;52.028;8.916;2023-05-10T03:58:20;13.40;99.90
6843;DHT22;3460;52.028;8.916;2023-05-10T04:00:47;13.50;99.90
6843;DHT22;3460;52.028;8.916;2023-05-10T04:03:15;13.40;99.90
6843;DHT22;3460;52.028;8.916;2023-05-10T04:05:42;13.40;99.90
6843;DHT22;3460;52.028;8.916;2023-05-10T04:08:09;13.50;99.90
6843;DHT22;3460;52.028;8.916;2023-05-10T04:10:36;13.50;99.90
6843;DHT22;3460;52.028;8.916;2023-05-10T04:13:03;13.40;99.90
6843;DHT22;3460;52.028;8.916;2023-05-10T04:15:29;13.50;99.90
6843;DHT22;3460;52.028;8.916;2023-05-10T04:17:56;13.50;99.90
6843;DHT22;3460;52.028;8.916;2023-05-10T04:20:24;13.50;99.90
6843;DHT22;3460;52.028;8.916;2023-05-10T04:22:51;13.50;99.90
6843;DHT22;3460;52.028;8.916;2023-05-10T04:25:18;13.50;99.90
6843;DHT22;3460;52.028;8.916;2023-05-10T04:27:45;13.50;99.90
6843;DHT22;3460;52.028;8.916;2023-05-10T04:30:12;13.50;99.90
6843;DHT22;3460;52.028;8.916;2023-05-10T04:32:39;13.50;99.90
6843;DHT22;3460;52.028;8.916;2023-05-10T04:35:06;13.50;99.90
6843;DHT22;3460;52.028;8.916;2023-05-10T04:37:34;13.50;99.90
6843;DHT22;3460;52.028;8.916;2023-05-10T04:40:02;13.50;99.90
6843;DHT22;3460;52.028;8.916;2023-05-10T04:42:29;13.60;99.90
6843;DHT22;3460;52.028;8.916;2023-05-10T04:44:56;13.50;99.90
6843;DHT22;3460;52.028;8.916;2023-05-10T04:47:23;13.60;99.90
6843;DHT22;3460;52.028;8.916;2023-05-10T04:49:49;13.50;99.90
6843;DHT22;3460;52.028;8.916;2023-05-10T04:52:16;13.60;99.90
6843;DHT22;3460;52.028;8.916;2023-05-10T04:54:45;13.60;99.90
6843;DHT22;3460;52.028;8.916;2023-05-10T04:57:11;13.60;99.90
6843;DHT22;3460;52.028;8.916;2023-05-10T04:59:38;13.60;99.90
6843;DHT22;3460;52.028;8.916;2023-05-10T05:02:05;13.60;99.90
6843;DHT22;3460;52.028;8.916;2023-05-10T05:04:32;13.70;99.90
6843;DHT22;3460;52.028;8.916;2023-05-10T05:06:59;13.70;99.90
6843;DHT22;3460;52.028;8.916;2023-05-10T05:09:26;13.70;99.90
6843;DHT22;3460;52.028;8.916;2023-05-10T05:11:54;13.70;99.90
6843;DHT22;3460;52.028;8.916;2023-05-10T05:14:21;13.70;99.90
6843;DHT22;3460;52.028;8.916;2023-05-10T05:16:50;13.70;99.90
6843;DHT22;3460;52.028;8.916;2023-05-10T05:19:17;13.70;99.90
6843;DHT22;3460;52.028;8.916;2023-05-10T05:21:44;13.60;99.90
6843;DHT22;3460;52.028;8.916;2023-05-10T05:24:10;13.50;99.90
6843;DHT22;3460;52.028;8.916;2023-05-10T05:26:38;13.50;99.90
6843;DHT22;3460;52.028;8.916;2023-05-10T05:29:06;13.40;99.90
6843;DHT22;3460;52.028;8.916;2023-05-10T05:31:33;13.40;99.90
6843;DHT22;3460;52.028;8.916;2023-05-10T05:34:00;13.40;99.90
6843;DHT22;3460;52.028;8.916;2023-05-10T05:36:26;13.30;99.90
6843;DHT22;3460;52.028;8.916;2023-05-10T05:38:53;13.30;99.90
6843;DHT22;3460;52.028;8.916;2023-05-10T05:41:20;13.20;99.90
6843;DHT22;3460;52.028;8.916;2023-05-10T05:43:47;13.20;99.90
6843;DHT22;3460;52.028;8.916;2023-05-10T05:46:15;13.20;99.90
6843;DHT22;3460;52.028;8.916;2023-05-10T05:48:42;13.20;99.90
6843;DHT22;3460;52.028;8.916;2023-05-10T05:51:09;13.20;99.90
6843;DHT22;3460;52.028;8.916;2023-05-10T05:53:36;13.10;99.90
6843;DHT22;3460;52.028;8.916;2023-05-10T05:56:03;13.10;99.90
6843;DHT22;3460;52.028;8.916;2023-05-10T05:58:30;13.10;99.90
6843;DHT22;3460;52.028;8.916;2023-05-10T06:00:57;13.20;99.90
6843;DHT22;3460;52.028;8.916;2023-05-10T06:03:25;13.20;99.90
6843;DHT22;3460;52.028;8.916;2023-05-10T06:05:52;13.20;99.90
6843;DHT22;3460;52.028;8.916;2023-05-10T06:08:18;13.20;99.90
6843;DHT22;3460;52.028;8.916;2023-05-10T06:10:45;13.20;99.90
6843;DHT22;3460;52.028;8.916;2023-05-10T06:13:12;13.20;99.90
6843;DHT22;3460;52.028;8.916;2023-05-10T06:15:39;13.20;99.90
6843;DHT22;3460;52.028;8.916;2023-05-10T06:18:06;13.10;99.90
6843;DHT22;3460;52.028;8.916;2023-05-10T06:20:34;13.20;99.90
6843;DHT22;3460;52.028;8.916;2023-05-10T06:23:01;13.20;99.90
6843;DHT22;3460;52.028;8.916;2023-05-10T06:25:28;13.20;99.90
6843;DHT22;3460;52.028;8.916;2023-05-10T06:27:54;13.20;99.90
6843;DHT22;3460;52.028;8.916;2023-05-10T06:30:24;13.10;99.90
6843;DHT22;3460;52.028;8.916;2023-05-10T06:32:53;13.10;99.90
6843;DHT22;3460;52.028;8.916;2023-05-10T06:35:20;13.10;99.90
6843;DHT22;3460;52.028;8.916;2023-05-10T06:37:49;13.10;99.90
6843;DHT22;3460;52.028;8.916;2023-05-10T06:40:16;13.10;99.90
6843;DHT22;3460;52.028;8.916;2023-05-10T06:42:43;13.10;99.90
6843;DHT22;3460;52.028;8.916;2023-05-10T06:45:11;13.10;99.90
6843;DHT22;3460;52.028;8.916;2023-05-10T06:47:38;13.00;99.90
6843;DHT22;3460;52.028;8.916;2023-05-10T06:50:06;13.00;99.90
6843;DHT22;3460;52.028;8.916;2023-05-10T06:52:33;13.10;99.90
6843;DHT22;3460;52.028;8.916;2023-05-10T06:55:02;13.20;99.90
6843;DHT22;3460;52.028;8.916;2023-05-10T06:57:29;13.20;99.90
6843;DHT22;3460;52.028;8.916;2023-05-10T06:59:56;13.20;99.90
6843;DHT22;3460;52.028;8.916;2023-05-10T07:02:23;13.30;99.90
6843;DHT22;3460;52.028;8.916;2023-05-10T07:04:50;13.30;99.90
6843;DHT22;3460;52.028;8.916;2023-05-10T07:07:17;13.30;99.90
6843;DHT22;3460;52.028;8.916;2023-05-10T07:09:44;13.30;99.90
6843;DHT22;3460;52.028;8.916;2023-05-10T07:12:12;13.30;99.90
6843;DHT22;3460;52.028;8.916;2023-05-10T07:14:39;13.30;99.90
6843;DHT22;3460;52.028;8.916;2023-05-10T07:17:06;13.30;99.90
6843;DHT22;3460;52.028;8.916;2023-05-10T07:19:33;13.40;99.90
6843;DHT22;3460;52.028;8.916;2023-05-10T07:21:59;13.40;99.90
6843;DHT22;3460;52.028;8.916;2023-05-10T07:24:27;13.40;99.90
6843;DHT22;3460;52.028;8.916;2023-05-10T07:26:54;13.30;99.90
6843;DHT22;3460;52.028;8.916;2023-05-10T07:29:22;13.30;99.90
6843;DHT22;3460;52.028;8.916;2023-05-10T07:31:48;13.40;99.90
6843;DHT22;3460;52.028;8.916;2023-05-10T07:34:15;13.40;99.90
6843;DHT22;3460;52.028;8.916;2023-05-10T07:36:42;13.40;99.90
6843;DHT22;3460;52.028;8.916;2023-05-10T07:39:09;13.50;99.90
6843;DHT22;3460;52.028;8.916;2023-05-10T07:41:36;13.60;99.90
6843;DHT22;3460;52.028;8.916;2023-05-10T07:44:04;13.60;99.90
6843;DHT22;3460;52.028;8.916;2023-05-10T07:46:32;13.70;99.90
6843;DHT22;3460;52.028;8.916;2023-05-10T07:48:59;13.80;99.90
6843;DHT22;3460;52.028;8.916;2023-05-10T07:51:26;13.80;99.90
6843;DHT22;3460;52.028;8.916;2023-05-10T07:53:53;13.80;99.90
6843;DHT22;3460;52.028;8.916;2023-05-10T07:56:22;13.90;99.90
6843;DHT22;3460;52.028;8.916;2023-05-10T07:58:50;13.90;99.90
6843;DHT22;3460;52.028;8.916;2023-05-10T08:01:17;13.90;99.90
6843;DHT22;3460;52.028;8.916;2023-05-10T08:03:45;14.00;99.90
6843;DHT22;3460;52.028;8.916;2023-05-10T08:06:12;14.00;99.90
6843;DHT22;3460;52.028;8.916;2023-05-10T08:08:39;14.00;99.90
6843;DHT22;3460;52.028;8.916;2023-05-10T08:11:06;14.00;99.90
6843;DHT22;3460;52.028;8.916;2023-05-10T08:13:33;13.90;99.90
6843;DHT22;3460;52.028;8.916;2023-05-10T08:16:00;13.90;99.90
6843;DHT22;3460;52.028;8.916;2023-05-10T08:18:27;13.90;99.90
6843;DHT22;3460;52.028;8.916;2023-05-10T08:20:55;13.90;99.90
6843;DHT22;3460;52.028;8.916;2023-05-10T08:23:21;13.90;99.90
6843;DHT22;3460;52.028;8.916;2023-05-10T08:25:48;13.90;99.90
6843;DHT22;3460;52.028;8.916;2023-05-10T08:28:15;14.00;99.90
6843;DHT22;3460;52.028;8.916;2023-05-10T08:30:42;14.10;99.90
6843;DHT22;3460;52.028;8.916;2023-05-10T08:33:09;14.10;99.90
6843;DHT22;3460;52.028;8.916;2023-05-10T08:35:35;14.20;99.90
6843;DHT22;3460;52.028;8.916;2023-05-10T08:38:04;14.20;99.90
6843;DHT22;3460;52.028;8.916;2023-05-10T08:40:30;14.20;99.90
6843;DHT22;3460;52.028;8.916;2023-05-10T08:43:01;14.30;99.90
6843;DHT22;3460;52.028;8.916;2023-05-10T08:45:32;14.30;99.90
6843;DHT22;3460;52.028;8.916;2023-05-10T08:48:01;14.50;99.90
6843;DHT22;3460;52.028;8.916;2023-05-10T08:50:29;14.50;99.90
6843;DHT22;3460;52.028;8.916;2023-05-10T08:53:00;14.60;99.90
6843;DHT22;3460;52.028;8.916;2023-05-10T08:55:28;14.60;99.90
6843;DHT22;3460;52.028;8.916;2023-05-10T08:57:55;14.50;99.90
6843;DHT22;3460;52.028;8.916;2023-05-10T09:00:22;14.40;99.90
6843;DHT22;3460;52.028;8.916;2023-05-10T09:02:50;14.40;99.90
6843;DHT22;3460;52.028;8.916;2023-05-10T09:05:17;14.40;99.90
6843;DHT22;3460;52.028;8.916;2023-05-10T09:07:44;14.40;99.90
6843;DHT22;3460;52.028;8.916;2023-05-10T09:10:11;14.40;99.90
6843;DHT22;3460;52.028;8.916;2023-05-10T09:12:40;14.40;99.90
6843;DHT22;3460;52.028;8.916;2023-05-10T09:15:07;14.50;99.90
6843;DHT22;3460;52.028;8.916;2023-05-10T09:17:36;14.60;99.90
6843;DHT22;3460;52.028;8.916;2023-05-10T09:20:04;14.70;99.90
6843;DHT22;3460;52.028;8.916;2023-05-10T09:22:32;14.80;99.90
6843;DHT22;3460;52.028;8.916;2023-05-10T09:25:09;14.90;99.90
6843;DHT22;3460;52.028;8.916;2023-05-10T09:27:39;15.10;99.90
6843;DHT22;3460;52.028;8.916;2023-05-10T09:30:07;15.30;99.90
6843;DHT22;3460;52.028;8.916;2023-05-10T09:32:38;15.30;99.90
6843;DHT22;3460;52.028;8.916;2023-05-10T09:35:09;15.40;99.90
6843;DHT22;3460;52.028;8.916;2023-05-10T09:37:36;15.50;99.90
6843;DHT22;3460;52.028;8.916;2023-05-10T09:40:06;15.40;99.90
6843;DHT22;3460;52.028;8.916;2023-05-10T09:42:34;15.50;99.90
6843;DHT22;3460;52.028;8.916;2023-05-10T09:45:04;15.60;99.90
6843;DHT22;3460;52.028;8.916;2023-05-10T09:47:32;15.60;99.90
6843;DHT22;3460;52.028;8.916;2023-05-10T09:49:59;15.50;99.90
6843;DHT22;3460;52.028;8.916;2023-05-10T09:52:29;15.30;99.90
6843;DHT22;3460;52.028;8.916;2023-05-10T09:54:56;15.20;99.90
6843;DHT22;3460;52.028;8.916;2023-05-10T09:57:24;15.20;99.90
6843;DHT22;3460;52.028;8.916;2023-05-10T09:59:50;15.10;99.90
6843;DHT22;3460;52.028;8.916;2023-05-10T10:02:21;15.10;99.90
6843;DHT22;3460;52.028;8.916;2023-05-10T10:04:55;15.00;99.90
6843;DHT22;3460;52.028;8.916;2023-05-10T10:07:23;14.90;99.90
6843;DHT22;3460;52.028;8.916;2023-05-10T10:09:52;14.80;99.90
6843;DHT22;3460;52.028;8.916;2023-05-10T10:12:19;14.70;99.90
6843;DHT22;3460;52.028;8.916;2023-05-10T10:14:46;14.60;99.90
6843;DHT22;3460;52.028;8.916;2023-05-10T10:17:15;14.60;99.90
6843;DHT22;3460;52.028;8.916;2023-05-10T10:19:43;14.50;99.90
6843;DHT22;3460;52.028;8.916;2023-05-10T10:22:11;14.50;99.90
6843;DHT22;3460;52.028;8.916;2023-05-10T10:24:38;14.70;99.90
6843;DHT22;3460;52.028;8.916;2023-05-10T10:27:15;14.80;99.90
6843;DHT22;3460;52.028;8.916;2023-05-10T10:29:52;14.90;99.90
6843;DHT22;3460;52.028;8.916;2023-05-10T10:32:26;15.00;99.90
6843;DHT22;3460;52.028;8.916;2023-05-10T10:34:56;15.10;99.90
6843;DHT22;3460;52.028;8.916;2023-05-10T10:37:24;15.30;99.90
6843;DHT22;3460;52.028;8.916;2023-05-10T10:40:22;15.50;99.90
6843;DHT22;3460;52.028;8.916;2023-05-10T10:42:49;15.60;99.90
6843;DHT22;3460;52.028;8.916;2023-05-10T10:45:16;15.70;99.90
6843;DHT22;3460;52.028;8.916;2023-05-10T10:47:43;15.90;99.90
6843;DHT22;3460;52.028;8.916;2023-05-10T10:50:12;15.90;99.90
6843;DHT22;3460;52.028;8.916;2023-05-10T10:52:40;16.20;99.90
6843;DHT22;3460;52.028;8.916;2023-05-10T10:55:17;16.30;99.90
6843;DHT22;3460;52.028;8.916;2023-05-10T10:57:49;16.40;99.90
6843;DHT22;3460;52.028;8.916;2023-05-10T11:00:31;16.40;99.90
6843;DHT22;3460;52.028;8.916;2023-05-10T11:02:59;16.40;99.90
6843;DHT22;3460;52.028;8.916;2023-05-10T11:05:44;16.40;99.90
6843;DHT22;3460;52.028;8.916;2023-05-10T11:08:28;16.50;99.90
6843;DHT22;3460;52.028;8.916;2023-05-10T11:11:15;16.50;99.90
6843;DHT22;3460;52.028;8.916;2023-05-10T11:13:43;16.60;99.90
6843;DHT22;3460;52.028;8.916;2023-05-10T11:16:18;17.00;99.90
6843;DHT22;3460;52.028;8.916;2023-05-10T11:18:58;17.20;99.90
6843;DHT22;3460;52.028;8.916;2023-05-10T11:21:27;17.40;99.90
6843;DHT22;3460;52.028;8.916;2023-05-10T11:23:55;17.50;99.90
6843;DHT22;3460;52.028;8.916;2023-05-10T11:26:24;17.80;99.90
6843;DHT22;3460;52.028;8.916;2023-05-10T11:28:53;17.80;99.90
6843;DHT22;3460;52.028;8.916;2023-05-10T11:31:22;17.90;99.90
6843;DHT22;3460;52.028;8.916;2023-05-10T11:33:53;17.90;99.90
6843;DHT22;3460;52.028;8.916;2023-05-10T11:36:21;18.10;99.90
6843;DHT22;3460;52.028;8.916;2023-05-10T11:38:48;18.20;99.90
6843;DHT22;3460;52.028;8.916;2023-05-10T11:41:17;18.40;99.90
6843;DHT22;3460;52.028;8.916;2023-05-10T11:43:48;18.60;99.90
6843;DHT22;3460;52.028;8.916;2023-05-10T11:46:17;18.70;99.90
6843;DHT22;3460;52.028;8.916;2023-05-10T11:48:47;18.80;99.90
6843;DHT22;3460;52.028;8.916;2023-05-10T11:51:13;18.80;99.90
6843;DHT22;3460;52.028;8.916;2023-05-10T11:53:40;19.00;99.90
6843;DHT22;3460;52.028;8.916;2023-05-10T11:56:08;18.90;99.90
6843;DHT22;3460;52.028;8.916;2023-05-10T11:58:36;18.70;99.90
6843;DHT22;3460;52.028;8.916;2023-05-10T12:01:06;18.50;99.90
6843;DHT22;3460;52.028;8.916;2023-05-10T12:03:34;18.20;99.90
6843;DHT22;3460;52.028;8.916;2023-05-10T12:06:02;18.10;99.90
6843;DHT22;3460;52.028;8.916;2023-05-10T12:08:30;18.10;99.90
6843;DHT22;3460;52.028;8.916;2023-05-10T12:11:05;18.30;99.90
6843;DHT22;3460;52.028;8.916;2023-05-10T12:13:32;18.60;99.90
6843;DHT22;3460;52.028;8.916;2023-05-10T12:15:59;18.80;99.90
6843;DHT22;3460;52.028;8.916;2023-05-10T12:18:27;18.80;99.90
6843;DHT22;3460;52.028;8.916;2023-05-10T12:20:54;18.80;99.90
6843;DHT22;3460;52.028;8.916;2023-05-10T12:23:29;18.70;99.90
6843;DHT22;3460;52.028;8.916;2023-05-10T12:26:02;18.50;99.90
6843;DHT22;3460;52.028;8.916;2023-05-10T12:28:30;18.50;99.90
6843;DHT22;3460;52.028;8.916;2023-05-10T12:30:57;18.50;99.90
6843;DHT22;3460;52.028;8.916;2023-05-10T12:33:25;18.60;99.90
6843;DHT22;3460;52.028;8.916;2023-05-10T12:35:54;18.50;99.90
6843;DHT22;3460;52.028;8.916;2023-05-10T12:38:26;18.40;99.90
6843;DHT22;3460;52.028;8.916;2023-05-10T12:40:55;18.20;99.90
6843;DHT22;3460;52.028;8.916;2023-05-10T12:43:21;18.20;99.90
6843;DHT22;3460;52.028;8.916;2023-05-10T12:45:49;18.20;99.90
6843;DHT22;3460;52.028;8.916;2023-05-10T12:48:15;18.10;99.90
6843;DHT22;3460;52.028;8.916;2023-05-10T12:50:42;18.00;99.90
6843;DHT22;3460;52.028;8.916;2023-05-10T12:53:10;17.90;99.90
6843;DHT22;3460;52.028;8.916;2023-05-10T12:55:38;17.90;99.90
6843;DHT22;3460;52.028;8.916;2023-05-10T12:58:05;17.90;99.90
6843;DHT22;3460;52.028;8.916;2023-05-10T13:00:32;17.90;99.90
6843;DHT22;3460;52.028;8.916;2023-05-10T13:02:59;17.70;99.90
6843;DHT22;3460;52.028;8.916;2023-05-10T13:05:26;17.60;99.90
6843;DHT22;3460;52.028;8.916;2023-05-10T13:07:52;17.40;99.90
6843;DHT22;3460;52.028;8.916;2023-05-10T13:10:20;17.10;99.90
6843;DHT22;3460;52.028;8.916;2023-05-10T13:12:49;16.70;99.90
6843;DHT22;3460;52.028;8.916;2023-05-10T13:15:16;16.50;99.90
6843;DHT22;3460;52.028;8.916;2023-05-10T13:17:42;16.20;99.90
6843;DHT22;3460;52.028;8.916;2023-05-10T13:20:11;15.80;99.90
6843;DHT22;3460;52.028;8.916;2023-05-10T13:22:38;15.60;99.90
6843;DHT22;3460;52.028;8.916;2023-05-10T13:25:05;15.50;99.90
6843;DHT22;3460;52.028;8.916;2023-05-10T13:27:33;15.30;99.90
6843;DHT22;3460;52.028;8.916;2023-05-10T13:30:00;15.30;99.90
6843;DHT22;3460;52.028;8.916;2023-05-10T13:32:28;15.30;99.90
6843;DHT22;3460;52.028;8.916;2023-05-10T13:34:55;15.40;99.90
6843;DHT22;3460;52.028;8.916;2023-05-10T13:37:22;15.40;99.90
6843;DHT22;3460;52.028;8.916;2023-05-10T13:39:49;15.40;99.90
6843;DHT22;3460;52.028;8.916;2023-05-10T13:42:16;15.50;99.90
6843;DHT22;3460;52.028;8.916;2023-05-10T13:44:45;15.60;99.90
6843;DHT22;3460;52.028;8.916;2023-05-10T13:47:11;15.80;99.90
6843;DHT22;3460;52.028;8.916;2023-05-10T13:49:38;15.90;99.90
6843;DHT22;3460;52.028;8.916;2023-05-10T13:52:05;16.10;99.90
6843;DHT22;3460;52.028;8.916;2023-05-10T13:54:32;16.30;99.90
6843;DHT22;3460;52.028;8.916;2023-05-10T13:56:59;16.30;99.90
6843;DHT22;3460;52.028;8.916;2023-05-10T13:59:26;16.40;99.90
6843;DHT22;3460;52.028;8.916;2023-05-10T14:01:54;16.40;99.90
6843;DHT22;3460;52.028;8.916;2023-05-10T14:04:21;16.50;99.90
6843;DHT22;3460;52.028;8.916;2023-05-10T14:06:48;16.50;99.90
6843;DHT22;3460;52.028;8.916;2023-05-10T14:09:14;16.50;99.90
6843;DHT22;3460;52.028;8.916;2023-05-10T14:11:41;16.60;99.90
6843;DHT22;3460;52.028;8.916;2023-05-10T14:14:10;16.60;99.90
6843;DHT22;3460;52.028;8.916;2023-05-10T14:16:37;16.60;99.90
6843;DHT22;3460;52.028;8.916;2023-05-10T14:19:05;16.70;99.90
6843;DHT22;3460;52.028;8.916;2023-05-10T14:21:32;16.90;99.90
6843;DHT22;3460;52.028;8.916;2023-05-10T14:23:59;16.90;99.90
6843;DHT22;3460;52.028;8.916;2023-05-10T14:26:26;16.90;99.90
6843;DHT22;3460;52.028;8.916;2023-05-10T14:28:53;17.10;99.90
6843;DHT22;3460;52.028;8.916;2023-05-10T14:31:20;17.20;99.90
6843;DHT22;3460;52.028;8.916;2023-05-10T14:33:48;17.30;99.90
6843;DHT22;3460;52.028;8.916;2023-05-10T14:36:17;17.40;99.90
6843;DHT22;3460;52.028;8.916;2023-05-10T14:38:44;17.30;99.90
6843;DHT22;3460;52.028;8.916;2023-05-10T14:41:10;17.20;99.90
6843;DHT22;3460;52.028;8.916;2023-05-10T14:43:39;17.10;99.90
6843;DHT22;3460;52.028;8.916;2023-05-10T14:46:06;17.00;99.90
6843;DHT22;3460;52.028;8.916;2023-05-10T14:48:34;16.80;99.90
6843;DHT22;3460;52.028;8.916;2023-05-10T14:51:00;16.70;99.90
6843;DHT22;3460;52.028;8.916;2023-05-10T14:53:29;16.60;99.90
6843;DHT22;3460;52.028;8.916;2023-05-10T14:55:56;16.60;99.90
6843;DHT22;3460;52.028;8.916;2023-05-10T14:58:23;16.60;99.90
6843;DHT22;3460;52.028;8.916;2023-05-10T15:00:49;16.80;99.90
6843;DHT22;3460;52.028;8.916;2023-05-10T15:03:16;17.00;99.90
6843;DHT22;3460;52.028;8.916;2023-05-10T15:05:43;17.10;99.90
6843;DHT22;3460;52.028;8.916;2023-05-10T15:08:10;17.20;99.90
6843;DHT22;3460;52.028;8.916;2023-05-10T15:10:39;17.20;99.90
6843;DHT22;3460;52.028;8.916;2023-05-10T15:13:06;17.20;99.90
6843;DHT22;3460;52.028;8.916;2023-05-10T15:15:33;17.00;99.90
6843;DHT22;3460;52.028;8.916;2023-05-10T15:17:59;16.90;99.90
6843;DHT22;3460;52.028;8.916;2023-05-10T15:20:26;16.80;99.90
6843;DHT22;3460;52.028;8.916;2023-05-10T15:22:53;16.80;99.90
6843;DHT22;3460;52.028;8.916;2023-05-10T15:25:20;16.80;99.90
6843;DHT22;3460;52.028;8.916;2023-05-10T15:27:49;16.80;99.90
6843;DHT22;3460;52.028;8.916;2023-05-10T15:30:16;16.70;99.90
6843;DHT22;3460;52.028;8.916;2023-05-10T15:32:43;16.70;99.90
6843;DHT22;3460;52.028;8.916;2023-05-10T15:35:10;16.60;99.90
6843;DHT22;3460;52.028;8.916;2023-05-10T15:37:37;16.60;99.90
6843;DHT22;3460;52.028;8.916;2023-05-10T15:40:04;16.50;99.90
6843;DHT22;3460;52.028;8.916;2023-05-10T15:42:32;16.50;99.90
6843;DHT22;3460;52.028;8.916;2023-05-10T15:45:00;16.40;99.90
6843;DHT22;3460;52.028;8.916;2023-05-10T15:47:29;16.40;99.90
6843;DHT22;3460;52.028;8.916;2023-05-10T15:49:56;16.50;99.90
6843;DHT22;3460;52.028;8.916;2023-05-10T15:52:23;16.50;99.90
6843;DHT22;3460;52.028;8.916;2023-05-10T15:54:50;16.50;99.90
6843;DHT22;3460;52.028;8.916;2023-05-10T15:57:16;16.50;99.90
6843;DHT22;3460;52.028;8.916;2023-05-10T15:59:43;16.40;99.90
6843;DHT22;3460;52.028;8.916;2023-05-10T16:02:11;16.30;99.90
6843;DHT22;3460;52.028;8.916;2023-05-10T16:04:38;16.30;99.90
6843;DHT22;3460;52.028;8.916;2023-05-10T16:07:05;16.20;99.90
6843;DHT22;3460;52.028;8.916;2023-05-10T16:09:32;16.20;99.90
6843;DHT22;3460;52.028;8.916;2023-05-10T16:11:58;16.20;99.90
6843;DHT22;3460;52.028;8.916;2023-05-10T16:14:26;16.20;99.90